LFPO/ORY METAR and TAF weather

Enter ICAO airport designator
Station Type Date Time Source
LFPO METAR 2019/12/07 17:30 UTC NOAA

LFPO 071730Z 20006KT 170V240 9999 BKN034 10/07 Q1018 NOSIG


Station Type Date Time Source
LFPO Decoded METAR 2019/12/07 17:30 UTC NOAA

Paris-Orly, France (LFPO) 48-44N 002-24E 96M
Dec 07, 2019 - 12:30 PM EST / 2019.12.07 1730 UTC
Wind: from the SSW (200 degrees) at 7 MPH (6 KT) (direction variable):0
Visibility: greater than 7 mile(s):0
Sky conditions: mostly cloudy
Temperature: 50 F (10 C)
Dew Point: 44 F (7 C)
Relative Humidity: 81%
Pressure (altimeter): 30.06 in. Hg (1018 hPa)
ob: LFPO 071730Z 20006KT 170V240 9999 BKN034 10/07 Q1018 NOSIG
cycle: 17

Station Type Date Time Source
LFPO TAF 2019/12/07 18:21 UTC NOAA

TAF LFPO 071700Z 0718/0824 22008KT 9999 BKN025 PROB30
TEMPO 0721/0803 4000 -DZ BKN004
BECMG 0803/0806 22015G30KT BKN010 PROB30
TEMPO 0803/0806 4000 -RA BKN004
TEMPO 0807/0812 4000 RA SCT015TCU
BECMG 0812/0814 25012KT SCT020 SCT040
TEMPO 0818/0822 4000 SHRA SCT025TCU

Example: see airport list